Pagrindinis puslapis
METAR-TAF:

METAR-TAF

Oro uostai :

São Pedro da Aldeia, Rio de Janeiro, Brazilija

platuma: 22-49S, ilguma: 042-06W, Aukštis: 10 m

Dabartinis oras

Ataskaita buvo paskelbta 47 minutes, ne 22:00 UTC
Vėjas 19 kt iš Rytų/Šiaurės Rytų
Temperatūra 22°C
Drėgmė 94%
Slėgis 1016 hPa
Matomumas 10 km arba daugiau
Mažai debesys ne aukštis 800 ft

METAR: SBES 162200Z 07019KT 9999 FEW008 22/21 Q1016

Laikas: 19:47 (22:47 UTC)


TAF: trūkstamas

Orai ataskaitas ir orų prognozės (METAR, TAF).

turimą stotys yra geltonos ir raudonos taškus žemėlapyje.

Perkelti pele per norėdami pamatyti stoties vardą.

Tada spustelėkite, norėdami matyti oro stebėjimo ir prognozės.

Norėdami pakeisti žemėlapį: spustelėkite ant žalios mygtukų su juodo kryžiaus žemyn,; žalią mygtuką su brūkšneliu, jei norite nutolinti; arba žalių rodyklių gretimoms žemėlapius.


METAR-TAF: